Time;durP1;ratioP1;P1;durP2;ratioP2;P2;SDS_P1;SDS_P2;PMS_P1;PMS_P2;Temp;Humidity;BMP_temperature;BMP_pressure;BME280_temperature;BME280_humidity;BME280_pressure;Samples;Min_cycle;Max_cycle;Signal;HPM_P1;HPM_P2
2022/04/29 00:00:48;;;;;;;6.90;4.20;;;20.80;45.40;;;;;;1862415;76;21552;-67
2022/04/29 00:03:16;;;;;;;5.67;4.67;;;20.90;45.40;;;;;;1867697;75;21166;-67
2022/04/29 00:05:43;;;;;;;7.92;4.62;;;20.90;45.40;;;;;;1866179;77;21216;-67
2022/04/29 00:08:11;;;;;;;5.78;4.85;;;20.80;45.90;;;;;;1850781;77;21160;-67
2022/04/29 00:10:39;;;;;;;8.70;4.87;;;20.80;45.40;;;;;;1850222;77;21093;-70
2022/04/29 00:13:07;;;;;;;7.33;5.17;;;20.80;45.30;;;;;;1849673;76;21141;-69
2022/04/29 00:15:34;;;;;;;7.62;4.87;;;20.80;45.30;;;;;;1846684;77;21085;-67
2022/04/29 00:18:02;;;;;;;6.30;4.17;;;20.80;45.30;;;;;;1846927;77;22150;-67
2022/04/29 00:20:29;;;;;;;4.83;4.28;;;20.80;45.30;;;;;;1848889;77;21128;-67
2022/04/29 00:22:56;;;;;;;11.22;4.92;;;20.80;45.30;;;;;;1850062;76;21096;-67
2022/04/29 00:25:24;;;;;;;6.28;4.55;;;20.80;45.30;;;;;;1849925;77;21174;-67
2022/04/29 00:27:51;;;;;;;9.15;5.15;;;20.80;45.30;;;;;;1849959;77;21164;-67
2022/04/29 00:30:18;;;;;;;5.83;4.55;;;20.80;45.30;;;;;;1844278;77;21104;-67
2022/04/29 00:32:46;;;;;;;9.00;4.45;;;20.80;45.20;;;;;;1849153;76;21085;-69
2022/04/29 00:35:13;;;;;;;6.42;4.72;;;20.70;45.20;;;;;;1849766;77;21219;-68
2022/04/29 00:37:55;;;;;;;6.20;4.72;;;20.80;45.20;;;;;;1850343;76;21372;-71
2022/04/29 00:40:29;;;;;;;9.35;4.20;;;20.80;45.20;;;;;;1849843;77;21625;-67
2022/04/29 00:42:57;;;;;;;7.05;4.62;;;20.80;45.20;;;;;;1850495;76;21148;-67
2022/04/29 00:45:25;;;;;;;6.30;4.33;;;20.80;45.20;;;;;;1848265;77;21131;-70
2022/04/29 00:47:52;;;;;;;6.97;4.53;;;20.80;45.20;;;;;;1850093;77;21542;-69
2022/04/29 00:50:24;;;;;;;6.58;4.53;;;20.80;45.20;;;;;;1850287;77;21114;-68
2022/04/29 00:52:53;;;;;;;6.80;4.78;;;20.80;45.20;;;;;;1849750;76;21120;-68
2022/04/29 00:55:22;;;;;;;5.70;4.33;;;20.80;45.20;;;;;;1844799;76;21107;-67
2022/04/29 00:58:18;;;;;;;6.50;4.30;;;20.70;45.20;;;;;;1848027;77;21144;-67
2022/04/29 01:00:45;;;;;;;5.75;4.45;;;20.70;45.10;;;;;;1847494;77;21210;-67
2022/04/29 01:03:13;;;;;;;8.88;4.33;;;20.70;45.20;;;;;;1850750;76;21658;-68
2022/04/29 01:05:41;;;;;;;7.65;4.60;;;20.70;45.20;;;;;;1848757;77;21089;-67
2022/04/29 01:08:08;;;;;;;6.80;4.87;;;20.70;45.10;;;;;;1854816;77;21218;-68
2022/04/29 01:10:36;;;;;;;5.30;4.40;;;20.70;45.10;;;;;;1855007;77;22494;-67
2022/04/29 01:13:04;;;;;;;7.10;4.55;;;20.70;45.10;;;;;;1851726;76;21281;-68
2022/04/29 01:15:32;;;;;;;5.35;4.67;;;20.70;45.10;;;;;;1851332;77;21101;-69
2022/04/29 01:18:08;;;;;;;6.62;4.62;;;20.70;45.10;;;;;;1856122;77;21645;-67
2022/04/29 01:20:36;;;;;;;6.00;4.28;;;20.70;45.00;;;;;;1856068;77;21750;-68
2022/04/29 01:23:08;;;;;;;5.78;4.40;;;20.70;45.00;;;;;;1855827;76;21202;-66
2022/04/29 01:25:36;;;;;;;6.37;4.70;;;20.70;45.00;;;;;;1855261;77;21121;-72
2022/04/29 01:28:03;;;;;;;6.50;4.53;;;20.70;45.00;;;;;;1856090;77;21539;-67
2022/04/29 01:30:31;;;;;;;7.53;4.60;;;20.70;45.00;;;;;;1850516;77;21128;-68
2022/04/29 01:32:58;;;;;;;4.47;3.80;;;20.70;45.00;;;;;;1855983;76;21672;-67
2022/04/29 01:35:26;;;;;;;4.70;4.05;;;20.70;45.00;;;;;;1855720;77;21238;-70
2022/04/29 01:37:53;;;;;;;4.90;4.12;;;20.70;45.10;;;;;;1855592;77;21194;-67
2022/04/29 01:40:20;;;;;;;7.22;4.75;;;20.70;45.00;;;;;;1856159;77;21237;-69
2022/04/29 01:42:47;;;;;;;5.42;4.03;;;20.70;45.00;;;;;;1856219;76;21113;-72
2022/04/29 01:45:15;;;;;;;5.25;3.72;;;20.60;45.00;;;;;;1849843;77;21148;-68
2022/04/29 01:47:42;;;;;;;5.90;4.40;;;20.60;45.00;;;;;;1856020;77;21108;-69
2022/04/29 01:50:09;;;;;;;4.80;4.30;;;20.60;45.00;;;;;;1855580;76;21487;-68
2022/04/29 01:52:37;;;;;;;6.40;4.45;;;20.60;44.90;;;;;;1856177;76;21047;-67
2022/04/29 01:55:05;;;;;;;6.62;4.58;;;20.60;44.90;;;;;;1844248;77;21163;-67
2022/04/29 01:57:32;;;;;;;8.65;4.60;;;20.60;44.90;;;;;;1855655;77;21139;-68
2022/04/29 01:59:59;;;;;;;4.67;4.17;;;20.60;45.40;;;;;;1854602;77;21125;-68
2022/04/29 02:02:27;;;;;;;6.37;4.37;;;20.60;44.90;;;;;;1855926;77;21202;-68
2022/04/29 02:04:54;;;;;;;5.45;4.20;;;20.60;44.80;;;;;;1855840;76;21230;-68
2022/04/29 02:07:21;;;;;;;5.97;4.35;;;20.60;44.90;;;;;;1855848;76;21140;-69
2022/04/29 02:09:49;;;;;;;6.85;3.67;;;20.60;44.80;;;;;;1856122;76;21137;-68
2022/04/29 02:12:17;;;;;;;4.65;3.92;;;20.60;44.80;;;;;;1856102;77;21089;-68
2022/04/29 02:14:44;;;;;;;5.03;3.90;;;20.60;44.80;;;;;;1854067;76;21156;-67
2022/04/29 02:17:12;;;;;;;5.35;3.75;;;20.60;44.80;;;;;;1855769;77;21552;-66
2022/04/29 02:19:39;;;;;;;5.85;4.20;;;20.60;44.80;;;;;;1855386;77;21722;-67
2022/04/29 02:22:08;;;;;;;5.95;3.75;;;20.60;44.70;;;;;;1855186;77;21182;-68
2022/04/29 02:24:35;;;;;;;4.30;3.90;;;20.60;45.00;;;;;;1855089;76;21121;-68
2022/04/29 02:27:04;;;;;;;6.75;4.70;;;20.60;44.70;;;;;;1855605;77;21147;-71
2022/04/29 02:29:31;;;;;;;6.15;4.60;;;20.60;44.80;;;;;;1851367;77;21097;-68
2022/04/29 02:31:58;;;;;;;5.28;4.08;;;20.50;44.70;;;;;;1855853;77;22301;-67
2022/04/29 02:34:26;;;;;;;5.28;4.05;;;20.60;44.70;;;;;;1856051;76;21143;-67
2022/04/29 02:36:54;;;;;;;4.80;3.98;;;20.50;44.70;;;;;;1856183;77;21563;-68
2022/04/29 02:39:21;;;;;;;6.97;4.42;;;20.50;44.60;;;;;;1856294;77;21085;-68
2022/04/29 02:41:48;;;;;;;4.80;4.25;;;20.50;45.10;;;;;;1855815;77;21116;-68
2022/04/29 02:44:16;;;;;;;5.83;4.70;;;20.50;44.60;;;;;;1853613;76;21210;-68
2022/04/29 02:49:28;;;;;;;5.45;4.17;;;20.50;44.60;;;;;;1856000;77;21215;-69
2022/04/29 02:51:56;;;;;;;4.83;4.22;;;20.50;44.50;;;;;;1839995;77;21194;-67
2022/04/29 02:54:23;;;;;;;5.10;4.00;;;20.50;44.60;;;;;;1839733;77;21218;-66
2022/04/29 02:56:51;;;;;;;5.97;4.12;;;20.50;44.60;;;;;;1839897;77;21084;-68
2022/04/29 02:59:19;;;;;;;5.72;4.30;;;20.50;44.60;;;;;;1832996;77;21090;-67
2022/04/29 03:01:46;;;;;;;6.12;4.00;;;20.50;44.30;;;;;;1840329;77;21628;-68
2022/04/29 03:04:14;;;;;;;5.78;4.03;;;20.50;44.60;;;;;;1839974;77;21219;-68
2022/04/29 03:06:41;;;;;;;7.08;4.45;;;20.50;44.60;;;;;;1839875;77;21136;-69
2022/04/29 03:09:09;;;;;;;6.05;4.40;;;20.50;44.60;;;;;;1848968;75;21126;-69
2022/04/29 03:11:36;;;;;;;6.12;4.72;;;20.50;44.60;;;;;;1850197;77;21094;-69
2022/04/29 03:14:03;;;;;;;4.67;3.90;;;20.50;44.50;;;;;;1849354;75;21239;-68
2022/04/29 03:16:31;;;;;;;5.72;4.28;;;20.50;44.50;;;;;;1849699;77;21123;-67
2022/04/29 03:18:58;;;;;;;5.70;4.28;;;20.50;44.40;;;;;;1849806;77;21130;-67
2022/04/29 03:21:26;;;;;;;4.28;3.87;;;20.50;44.40;;;;;;1849507;77;21618;-68
2022/04/29 03:23:53;;;;;;;5.62;4.33;;;20.40;44.30;;;;;;1850333;75;21130;-68
2022/04/29 03:26:20;;;;;;;6.30;4.67;;;20.40;44.30;;;;;;1849958;77;21631;-68
2022/04/29 03:28:48;;;;;;;4.75;3.92;;;20.50;44.40;;;;;;1865601;77;21223;-69
2022/04/29 03:31:15;;;;;;;6.55;4.03;;;20.40;44.30;;;;;;1868394;77;21522;-72
2022/04/29 03:33:42;;;;;;;5.75;4.62;;;20.40;44.30;;;;;;1868251;75;21122;-66
2022/04/29 03:36:09;;;;;;;6.08;4.25;;;20.40;44.60;;;;;;1868224;77;21122;-69
2022/04/29 03:38:37;;;;;;;5.05;4.20;;;20.40;44.30;;;;;;1867720;77;21142;-69
2022/04/29 03:41:05;;;;;;;4.97;3.87;;;20.40;44.50;;;;;;1868554;77;21098;-69
2022/04/29 03:43:32;;;;;;;5.30;4.20;;;20.40;44.40;;;;;;1868271;75;21223;-67
2022/04/29 03:45:59;;;;;;;5.00;3.98;;;20.40;44.40;;;;;;1864385;77;21195;-68
2022/04/29 03:48:27;;;;;;;4.55;4.12;;;20.40;44.20;;;;;;1868428;77;21145;-68
2022/04/29 03:50:54;;;;;;;5.70;4.60;;;20.40;44.30;;;;;;1868282;77;21078;-68
2022/04/29 03:53:24;;;;;;;6.25;4.00;;;20.40;44.30;;;;;;1868453;75;22227;-68
2022/04/29 03:55:52;;;;;;;6.28;3.85;;;20.40;44.40;;;;;;1850208;77;21204;-69
2022/04/29 03:58:19;;;;;;;5.35;3.27;;;20.40;44.30;;;;;;1850068;77;21611;-67
2022/04/29 04:00:46;;;;;;;5.20;3.95;;;20.40;44.30;;;;;;1857812;77;21201;-68
2022/04/29 04:03:14;;;;;;;5.83;4.58;;;20.40;44.20;;;;;;1849840;75;21696;-68
2022/04/29 04:06:49;;;;;;;5.17;3.98;;;20.40;44.30;;;;;;1849846;77;21137;-70
2022/04/29 04:08:10;;;;;;;4.83;3.60;;;20.30;44.30;;;;;;1850864;77;21126;-68
2022/04/29 04:10:38;;;;;;;5.28;4.25;;;20.30;44.20;;;;;;1850034;77;21139;-68
2022/04/29 04:13:05;;;;;;;7.00;4.03;;;20.30;44.30;;;;;;1849636;75;21248;-68
2022/04/29 04:15:32;;;;;;;5.50;3.75;;;20.30;44.20;;;;;;1841735;77;21118;-67
2022/04/29 04:18:01;;;;;;;5.80;4.37;;;20.30;44.20;;;;;;1831989;77;21220;-68
2022/04/29 04:20:29;;;;;;;4.42;4.03;;;20.30;44.30;;;;;;1850778;77;22205;-67
2022/04/29 04:22:56;;;;;;;5.65;4.53;;;20.30;44.30;;;;;;1867642;75;21724;-68
2022/04/29 04:25:23;;;;;;;7.50;3.90;;;20.30;44.30;;;;;;1868017;77;21110;-69
2022/04/29 04:27:51;;;;;;;5.72;4.33;;;20.30;44.20;;;;;;1859880;77;22073;-68
2022/04/29 04:30:18;;;;;;;6.62;4.12;;;20.30;44.20;;;;;;1852483;77;21099;-70
2022/04/29 04:32:45;;;;;;;4.92;3.58;;;20.30;44.30;;;;;;1850215;75;21730;-68
2022/04/29 04:35:13;;;;;;;5.53;4.28;;;20.30;44.20;;;;;;1850041;77;21133;-69
2022/04/29 04:37:40;;;;;;;5.85;3.92;;;20.30;44.10;;;;;;1850044;77;21625;-69
2022/04/29 04:40:09;;;;;;;5.40;4.10;;;20.30;44.20;;;;;;1849884;77;21122;-68
2022/04/29 04:42:46;;;;;;;4.87;4.00;;;20.30;44.20;;;;;;1850699;75;21163;-72
2022/04/29 04:45:14;;;;;;;5.90;4.40;;;20.30;44.10;;;;;;1851937;77;21573;-68
2022/04/29 04:47:42;;;;;;;5.60;3.92;;;20.30;44.10;;;;;;1868586;76;21141;-67
2022/04/29 04:50:09;;;;;;;4.95;4.30;;;20.30;44.10;;;;;;1868089;77;21102;-68
2022/04/29 04:52:38;;;;;;;5.42;3.65;;;20.30;44.10;;;;;;1868356;75;21636;-67
2022/04/29 04:55:07;;;;;;;4.75;3.95;;;20.30;44.00;;;;;;1868543;77;21220;-67
2022/04/29 04:57:34;;;;;;;4.47;3.80;;;20.30;44.10;;;;;;1868032;75;21101;-69
2022/04/29 05:00:01;;;;;;;8.70;3.90;;;20.30;44.00;;;;;;1863078;76;21102;-68
2022/04/29 05:02:29;;;;;;;5.12;3.47;;;20.20;44.20;;;;;;1868343;77;21116;-69
2022/04/29 05:04:58;;;;;;;8.53;4.47;;;20.30;43.40;;;;;;1864955;75;21145;-68
2022/04/29 05:07:26;;;;;;;6.67;4.08;;;20.20;43.60;;;;;;1868161;77;21219;-68
2022/04/29 05:09:54;;;;;;;8.33;3.77;;;20.20;43.40;;;;;;1858910;77;21152;-67
2022/04/29 05:12:21;;;;;;;5.58;4.10;;;20.20;43.80;;;;;;1855922;77;21132;-68
2022/04/29 05:14:48;;;;;;;7.72;4.22;;;20.20;44.00;;;;;;1850857;76;21575;-69
2022/04/29 05:17:15;;;;;;;7.78;3.70;;;20.10;44.10;;;;;;1855949;77;21210;-70
2022/04/29 05:19:43;;;;;;;6.90;3.85;;;20.10;44.10;;;;;;1855780;77;21675;-68
2022/04/29 05:22:10;;;;;;;9.10;4.03;;;20.10;44.70;;;;;;1855890;77;21123;-68
2022/04/29 05:24:37;;;;;;;8.60;3.90;;;20.10;44.10;;;;;;1855822;76;21594;-70
2022/04/29 05:27:05;;;;;;;5.42;4.03;;;20.10;44.20;;;;;;1855769;77;21058;-68
2022/04/29 05:29:33;;;;;;;5.10;4.10;;;20.10;44.20;;;;;;1849118;77;21142;-68
2022/04/29 05:32:00;;;;;;;5.70;4.30;;;20.10;44.20;;;;;;1856010;77;21124;-68
2022/04/29 05:34:27;;;;;;;9.43;3.77;;;20.10;44.30;;;;;;1856116;76;21132;-67
2022/04/29 05:36:54;;;;;;;7.08;3.98;;;20.10;44.20;;;;;;1834039;77;21123;-68
2022/04/29 05:42:22;;;;;;;5.85;3.85;;;20.10;44.20;;;;;;1856133;77;21152;-68
2022/04/29 05:44:49;;;;;;;4.03;3.62;;;20.10;44.20;;;;;;1855653;76;22095;-70
2022/04/29 05:47:16;;;;;;;7.25;3.75;;;20.10;44.20;;;;;;1856394;77;21104;-69
2022/04/29 05:49:44;;;;;;;5.55;3.80;;;20.10;44.30;;;;;;1856208;76;21128;-68
2022/04/29 05:52:11;;;;;;;6.45;3.58;;;20.10;44.30;;;;;;1856237;76;21077;-68
2022/04/29 05:54:38;;;;;;;7.72;3.70;;;20.10;44.30;;;;;;1855721;76;21623;-69
2022/04/29 05:57:06;;;;;;;5.37;3.75;;;20.10;44.10;;;;;;1855837;77;21098;-71
2022/04/29 05:59:33;;;;;;;6.12;3.75;;;20.10;44.20;;;;;;1853222;77;21105;-67
2022/04/29 06:02:00;;;;;;;4.95;3.60;;;20.10;44.30;;;;;;1855751;77;21104;-67
2022/04/29 06:04:28;;;;;;;5.97;3.90;;;20.10;44.30;;;;;;1856326;76;21132;-68
2022/04/29 06:06:55;;;;;;;7.20;3.95;;;20.10;44.30;;;;;;1856727;77;21115;-69
2022/04/29 06:09:22;;;;;;;7.42;3.95;;;20.10;44.30;;;;;;1847012;77;21087;-68
2022/04/29 06:11:50;;;;;;;5.80;3.37;;;20.10;44.30;;;;;;1869178;77;21156;-68
2022/04/29 06:14:17;;;;;;;5.70;3.90;;;20.10;44.30;;;;;;1856714;75;21583;-67
2022/04/29 06:16:46;;;;;;;14.43;3.50;;;20.10;44.40;;;;;;1858325;77;21495;-69
2022/04/29 06:19:14;;;;;;;6.15;4.00;;;20.10;44.30;;;;;;1855573;77;21192;-71
2022/04/29 06:21:41;;;;;;;5.53;3.95;;;20.20;44.10;;;;;;1856309;77;21107;-69
2022/04/29 06:24:08;;;;;;;9.63;3.95;;;20.20;44.30;;;;;;1854288;75;21129;-68
2022/04/29 06:26:36;;;;;;;8.65;3.95;;;20.20;44.50;;;;;;1867236;77;21192;-70
2022/04/29 06:29:04;;;;;;;5.90;3.90;;;20.20;44.50;;;;;;1862057;77;21106;-68
2022/04/29 06:31:31;;;;;;;5.25;4.00;;;20.10;44.50;;;;;;1868160;76;21157;-68
2022/04/29 06:33:58;;;;;;;9.23;3.95;;;20.20;44.50;;;;;;1868576;75;21150;-68
2022/04/29 06:36:26;;;;;;;12.95;4.72;;;20.10;44.50;;;;;;1868495;75;21117;-68
2022/04/29 06:38:53;;;;;;;9.58;4.85;;;20.10;44.50;;;;;;1858312;77;21160;-68
2022/04/29 06:41:20;;;;;;;6.58;3.83;;;20.10;44.50;;;;;;1860881;77;21042;-71
2022/04/29 06:43:48;;;;;;;6.25;4.03;;;20.10;44.50;;;;;;1868043;75;21146;-73
2022/04/29 06:46:17;;;;;;;6.35;3.45;;;20.10;44.60;;;;;;1860383;77;21683;-71
2022/04/29 06:48:45;;;;;;;7.25;4.00;;;20.20;44.60;;;;;;1868555;76;21117;-71
2022/04/29 06:51:13;;;;;;;5.53;3.72;;;20.10;44.60;;;;;;1860902;75;21122;-69
2022/04/29 06:53:40;;;;;;;6.10;3.80;;;20.20;44.70;;;;;;1868946;75;21662;-72
2022/04/29 06:56:08;;;;;;;8.65;3.80;;;20.10;44.60;;;;;;1868348;77;21649;-70
2022/04/29 06:58:35;;;;;;;6.03;3.67;;;20.10;44.60;;;;;;1860306;77;21094;-68
2022/04/29 07:01:02;;;;;;;4.70;3.70;;;20.10;44.60;;;;;;1863807;76;21685;-68
2022/04/29 07:03:30;;;;;;;5.65;4.22;;;20.20;44.60;;;;;;1849390;77;21127;-68
2022/04/29 07:05:59;;;;;;;4.65;3.33;;;20.10;44.60;;;;;;1860436;77;22099;-68
2022/04/29 07:08:26;;;;;;;8.35;4.08;;;20.20;44.60;;;;;;1841621;77;21105;-66
2022/04/29 07:10:53;;;;;;;11.78;4.00;;;20.20;44.90;;;;;;1840041;77;21139;-67
2022/04/29 07:13:21;;;;;;;9.38;4.55;;;20.20;44.70;;;;;;1848389;76;21124;-67
2022/04/29 07:15:48;;;;;;;5.85;4.40;;;20.20;44.60;;;;;;1849060;77;21167;-68
2022/04/29 07:18:16;;;;;;;6.40;4.08;;;20.20;44.70;;;;;;1854350;77;21073;-68
2022/04/29 07:20:44;;;;;;;7.83;3.80;;;20.20;44.70;;;;;;1826920;77;21183;-69
2022/04/29 07:23:12;;;;;;;4.45;3.33;;;20.20;44.70;;;;;;1828183;76;21121;-68
2022/04/29 07:25:39;;;;;;;6.20;4.25;;;20.20;44.90;;;;;;1834355;77;22035;-67
2022/04/29 07:28:07;;;;;;;7.30;4.15;;;20.20;44.80;;;;;;1837108;77;21132;-69
2022/04/29 07:30:35;;;;;;;8.03;4.05;;;20.20;44.80;;;;;;1851907;77;21799;-68
2022/04/29 07:33:02;;;;;;;4.42;3.70;;;20.30;44.90;;;;;;1856012;76;21571;-68
2022/04/29 07:43:46;;;;;;;11.28;4.05;;;20.20;44.90;;;;;;1856493;76;21133;-68
2022/04/29 07:46:13;;;;;;;5.72;3.70;;;20.20;44.90;;;;;;1846423;77;22094;-68
2022/04/29 07:48:40;;;;;;;8.65;4.60;;;20.20;44.90;;;;;;1839853;77;21492;-69
2022/04/29 07:51:08;;;;;;;7.17;4.58;;;20.20;44.90;;;;;;1839501;77;21531;-68
2022/04/29 07:53:35;;;;;;;5.05;4.08;;;20.20;44.90;;;;;;1839549;76;21218;-68
2022/04/29 07:56:02;;;;;;;10.30;4.87;;;20.20;44.90;;;;;;1853713;77;21563;-68
2022/04/29 07:58:29;;;;;;;12.73;4.50;;;20.30;45.00;;;;;;1839512;77;21112;-68
2022/04/29 08:00:57;;;;;;;12.37;5.30;;;20.20;44.80;;;;;;1856031;77;21591;-68
2022/04/29 08:03:25;;;;;;;7.95;4.08;;;20.30;44.90;;;;;;1856494;76;21151;-67
2022/04/29 08:05:52;;;;;;;12.82;4.35;;;20.20;44.90;;;;;;1856514;77;21531;-68
2022/04/29 08:08:20;;;;;;;11.63;4.65;;;20.30;44.90;;;;;;1856520;77;21155;-69
2022/04/29 08:10:47;;;;;;;13.62;5.60;;;20.20;44.90;;;;;;1855373;76;21772;-69
2022/04/29 08:13:14;;;;;;;12.05;4.60;;;20.20;44.90;;;;;;1855962;76;21190;-70
2022/04/29 08:15:44;;;;;;;10.43;5.22;;;20.20;44.90;;;;;;1855946;77;21697;-68
2022/04/29 08:18:12;;;;;;;8.93;5.17;;;20.20;45.00;;;;;;1856281;76;21085;-69
2022/04/29 08:20:40;;;;;;;11.68;4.53;;;20.20;45.00;;;;;;1840055;76;21250;-69
2022/04/29 08:23:08;;;;;;;9.20;4.70;;;20.20;45.00;;;;;;1840439;76;21140;-70
2022/04/29 08:25:35;;;;;;;10.72;5.20;;;20.30;45.10;;;;;;1856226;77;21167;-70
2022/04/29 08:28:03;;;;;;;11.63;5.17;;;20.30;45.10;;;;;;1841277;77;21180;-68
2022/04/29 08:30:30;;;;;;;7.60;5.12;;;20.30;45.10;;;;;;1841305;77;21080;-68
2022/04/29 08:32:59;;;;;;;9.40;5.00;;;20.30;45.20;;;;;;1849606;76;21206;-67
2022/04/29 08:35:27;;;;;;;10.75;5.87;;;20.30;45.10;;;;;;1845281;77;21100;-69
2022/04/29 08:37:57;;;;;;;12.98;4.97;;;20.30;45.10;;;;;;1856151;76;21116;-68
2022/04/29 08:40:25;;;;;;;10.48;5.55;;;20.30;45.10;;;;;;1850914;77;21443;-69
2022/04/29 08:42:53;;;;;;;12.20;5.30;;;20.20;45.00;;;;;;1851551;76;21085;-67
2022/04/29 08:45:21;;;;;;;9.00;5.45;;;20.30;45.10;;;;;;1852449;77;21144;-68
2022/04/29 08:47:48;;;;;;;12.10;5.28;;;20.30;45.10;;;;;;1849176;77;21179;-70
2022/04/29 08:50:20;;;;;;;11.75;5.28;;;20.30;45.10;;;;;;1856283;77;21222;-70
2022/04/29 08:52:52;;;;;;;14.75;5.72;;;20.30;45.20;;;;;;1856181;76;21558;-69
2022/04/29 09:00:48;;;;;;;8.43;4.83;;;20.30;45.20;;;;;;1850170;77;21126;-70
2022/04/29 09:03:17;;;;;;;10.40;5.28;;;20.30;45.20;;;;;;1855987;76;21228;-69
2022/04/29 09:05:45;;;;;;;16.60;6.53;;;20.30;45.20;;;;;;1839986;77;21101;-70
2022/04/29 09:08:13;;;;;;;13.68;6.40;;;20.30;45.20;;;;;;1840177;76;21093;-68
2022/04/29 09:10:52;;;;;;;18.95;6.30;;;20.30;45.40;;;;;;1840573;76;21138;-68
2022/04/29 09:13:24;;;;;;;17.00;7.53;;;20.30;45.40;;;;;;1855911;76;21191;-68
2022/04/29 09:16:01;;;;;;;14.20;7.05;;;20.30;45.40;;;;;;1849837;77;21629;-69
2022/04/29 09:18:43;;;;;;;16.77;6.58;;;20.30;45.50;;;;;;1855340;77;21222;-69
2022/04/29 09:21:18;;;;;;;21.05;7.70;;;20.30;45.60;;;;;;1843679;77;21629;-67
2022/04/29 09:23:56;;;;;;;29.90;7.37;;;20.30;45.60;;;;;;1839445;76;21227;-68
2022/04/29 09:26:28;;;;;;;16.17;7.53;;;20.30;45.80;;;;;;1856077;77;21135;-68
2022/04/29 09:28:57;;;;;;;17.57;6.97;;;20.40;45.80;;;;;;1855103;77;21083;-69
2022/04/29 09:31:25;;;;;;;17.17;6.45;;;20.40;46.00;;;;;;1854118;77;21178;-68
2022/04/29 09:33:56;;;;;;;16.40;6.80;;;20.40;45.40;;;;;;1856187;76;21249;-69
2022/04/29 09:36:24;;;;;;;;;;;20.40;45.80;;;;;;1858864;77;21122;-68
2022/04/29 09:42:00;;;;;;;18.37;7.78;;;20.40;45.70;;;;;;1855883;77;21120;-68
2022/04/29 09:44:34;;;;;;;14.43;5.60;;;20.40;45.70;;;;;;1854270;76;21148;-70
2022/04/29 09:47:10;;;;;;;14.43;6.55;;;20.40;45.80;;;;;;1856089;76;21566;-69
2022/04/29 09:49:38;;;;;;;17.20;6.55;;;20.30;45.80;;;;;;1856548;77;21101;-68
2022/04/29 09:52:06;;;;;;;13.50;6.15;;;20.40;45.90;;;;;;1856366;77;21113;-68
2022/04/29 09:54:37;;;;;;;16.55;6.28;;;20.40;45.80;;;;;;1856103;76;21259;-69
2022/04/29 09:57:08;;;;;;;;;;;20.30;45.70;;;;;;1858959;77;21034;-68
2022/04/29 09:59:36;;;;;;;;;;;20.30;45.70;;;;;;1854108;76;20205;-68
2022/04/29 10:02:04;;;;;;;14.00;5.72;;;20.40;45.80;;;;;;1855991;77;20191;-70
2022/04/29 10:04:34;;;;;;;14.33;6.08;;;20.30;45.80;;;;;;1855718;76;21446;-68
2022/04/29 10:07:03;;;;;;;11.80;5.30;;;20.30;45.80;;;;;;1855907;77;21239;-69
2022/04/29 10:09:33;;;;;;;12.35;5.40;;;20.40;45.80;;;;;;1856298;77;21125;-68
2022/04/29 10:12:02;;;;;;;12.00;5.83;;;20.30;45.70;;;;;;1849827;76;21112;-68
2022/04/29 10:14:30;;;;;;;8.15;4.78;;;20.40;45.80;;;;;;1866919;75;21191;-68
2022/04/29 10:22:37;;;;;;;8.40;4.92;;;20.40;45.70;;;;;;1871493;75;21207;-69
2022/04/29 10:25:06;;;;;;;9.88;5.28;;;20.40;45.80;;;;;;1871953;76;21144;-72
2022/04/29 10:27:34;;;;;;;15.35;5.90;;;20.40;45.80;;;;;;1871941;76;21086;-68
2022/04/29 10:30:01;;;;;;;10.15;5.25;;;20.40;45.80;;;;;;1871242;76;21418;-70
2022/04/29 10:32:29;;;;;;;8.23;4.60;;;20.40;45.80;;;;;;1871914;76;21558;-70
2022/04/29 10:34:56;;;;;;;12.23;5.03;;;20.40;45.70;;;;;;1871614;75;21116;-70
2022/04/29 10:37:36;;;;;;;12.47;5.70;;;20.40;45.70;;;;;;1871790;76;21085;-68
2022/04/29 10:40:12;;;;;;;9.90;4.53;;;20.40;45.80;;;;;;1871028;76;21117;-69
2022/04/29 10:43:13;;;;;;;11.68;5.40;;;20.40;45.80;;;;;;1871528;75;21190;-68
2022/04/29 10:45:36;;;;;;;9.00;4.50;;;20.40;45.90;;;;;;1869223;76;21586;-68
2022/04/29 10:48:32;;;;;;;9.33;5.22;;;20.40;45.90;;;;;;1872197;76;21104;-69
2022/04/29 10:51:10;;;;;;;10.60;5.37;;;20.50;46.00;;;;;;1871937;76;21093;-71
2022/04/29 10:53:41;;;;;;;10.13;5.60;;;20.50;46.00;;;;;;1871820;75;21070;-69
2022/04/29 10:56:28;;;;;;;10.63;4.92;;;20.40;46.00;;;;;;1871790;76;21085;-69
2022/04/29 10:59:11;;;;;;;9.03;4.85;;;20.40;45.90;;;;;;1848700;76;21139;-70
2022/04/29 11:01:39;;;;;;;8.23;4.62;;;20.40;46.00;;;;;;1860156;76;21502;-68
2022/04/29 11:04:17;;;;;;;7.00;4.08;;;20.40;46.00;;;;;;1872080;75;21074;-70
2022/04/29 11:06:48;;;;;;;6.35;4.10;;;20.50;46.10;;;;;;1856449;76;21182;-69
2022/04/29 11:09:38;;;;;;;12.68;5.60;;;20.50;46.10;;;;;;1868844;76;21198;-69
2022/04/29 11:12:02;;;;;;;8.30;4.45;;;20.50;46.10;;;;;;1869956;76;21158;-70
2022/04/29 11:14:29;;;;;;;10.60;5.47;;;20.40;46.10;;;;;;1863144;75;21128;-71
2022/04/29 11:17:14;;;;;;;13.72;4.62;;;20.50;46.10;;;;;;1868488;77;21291;-69
2022/04/29 11:19:47;;;;;;;9.03;4.58;;;20.50;46.20;;;;;;1868767;76;21141;-70
2022/04/29 11:25:05;;;;;;;6.95;4.42;;;20.50;46.20;;;;;;1856613;77;21253;-69
2022/04/29 11:27:37;;;;;;;5.53;3.92;;;20.50;46.20;;;;;;1867443;77;21106;-69
2022/04/29 11:30:05;;;;;;;7.83;4.15;;;20.50;46.20;;;;;;1859757;76;21099;-69
2022/04/29 11:32:34;;;;;;;6.62;4.60;;;20.50;46.20;;;;;;1868595;75;21126;-69
2022/04/29 11:35:03;;;;;;;5.80;4.47;;;20.50;46.20;;;;;;1850789;77;21087;-69
2022/04/29 11:37:34;;;;;;;6.97;4.28;;;20.50;46.20;;;;;;1851122;77;21149;-69
2022/04/29 11:40:08;;;;;;;11.85;4.90;;;20.50;46.10;;;;;;1868112;76;21106;-68
2022/04/29 11:42:36;;;;;;;6.70;4.35;;;20.50;46.10;;;;;;1868334;75;21122;-70
2022/04/29 11:45:10;;;;;;;7.17;4.65;;;20.50;46.10;;;;;;1867964;76;21757;-68
2022/04/29 11:47:37;;;;;;;9.08;4.97;;;20.50;46.00;;;;;;1868158;77;21219;-70
2022/04/29 11:50:06;;;;;;;7.05;4.47;;;20.50;46.00;;;;;;1868423;76;21191;-68
2022/04/29 11:52:36;;;;;;;7.08;5.12;;;20.50;46.20;;;;;;1868467;77;21231;-68
2022/04/29 11:55:05;;;;;;;6.62;4.28;;;20.50;46.10;;;;;;1868532;76;21255;-69
2022/04/29 11:57:45;;;;;;;5.80;3.87;;;20.50;46.10;;;;;;1868729;77;21223;-69
2022/04/29 12:00:25;;;;;;;6.28;3.25;;;20.50;46.20;;;;;;1863844;76;21194;-70
2022/04/29 12:02:53;;;;;;;7.80;4.42;;;20.50;46.20;;;;;;1846502;75;21137;-67
2022/04/29 12:05:25;;;;;;;7.62;4.33;;;20.60;46.20;;;;;;1850171;77;21142;-68
2022/04/29 12:07:52;;;;;;;7.08;4.22;;;20.60;46.40;;;;;;1850612;77;21138;-68
2022/04/29 12:10:27;;;;;;;7.28;4.62;;;20.60;46.70;;;;;;1847247;76;21197;-67
2022/04/29 12:12:55;;;;;;;8.45;4.03;;;20.50;46.80;;;;;;1841686;77;21154;-68
2022/04/29 12:15:30;;;;;;;7.12;4.12;;;20.60;46.80;;;;;;1829105;77;21119;-68
2022/04/29 12:17:59;;;;;;;6.10;3.98;;;20.60;47.10;;;;;;1833963;77;21147;-70
2022/04/29 12:20:26;;;;;;;8.63;4.05;;;20.60;47.10;;;;;;1835339;77;21217;-67
2022/04/29 12:22:53;;;;;;;7.37;4.33;;;20.60;47.10;;;;;;1850472;77;21503;-69
2022/04/29 12:25:33;;;;;;;8.10;3.87;;;20.60;47.10;;;;;;1852052;77;21078;-68
2022/04/29 12:28:08;;;;;;;6.03;3.87;;;20.60;47.00;;;;;;1852057;77;21579;-68
2022/04/29 12:36:15;;;;;;;6.67;4.17;;;20.60;46.90;;;;;;1830504;77;22379;-69
2022/04/29 12:38:45;;;;;;;8.20;4.20;;;20.60;46.90;;;;;;1824562;77;21112;-69
2022/04/29 12:41:30;;;;;;;5.72;3.85;;;20.70;47.00;;;;;;1849251;77;21112;-68
2022/04/29 12:46:44;;;;;;;5.75;4.08;;;20.70;47.00;;;;;;1846148;77;21136;-71
2022/04/29 12:49:15;;;;;;;8.35;4.05;;;20.70;47.00;;;;;;1859379;77;21112;-69
2022/04/29 12:51:46;;;;;;;5.65;3.58;;;20.60;47.00;;;;;;1846269;77;21100;-67
2022/04/29 12:54:15;;;;;;;7.10;4.17;;;20.70;46.90;;;;;;1846652;76;21144;-69
2022/04/29 12:56:42;;;;;;;5.58;3.75;;;20.70;46.90;;;;;;1841723;77;21105;-67
2022/04/29 12:59:10;;;;;;;6.05;3.60;;;20.70;46.70;;;;;;1815584;77;21074;-70
2022/04/29 13:01:40;;;;;;;9.35;3.87;;;20.70;46.80;;;;;;1816690;77;21111;-69
2022/04/29 13:04:08;;;;;;;4.78;3.83;;;20.70;46.80;;;;;;1856249;76;21637;-68
2022/04/29 13:06:35;;;;;;;5.58;3.62;;;20.70;46.70;;;;;;1856082;77;21207;-69
2022/04/29 13:09:03;;;;;;;6.60;3.67;;;20.70;47.20;;;;;;1856234;77;21186;-68
2022/04/29 13:11:32;;;;;;;7.00;4.55;;;20.70;46.70;;;;;;1855631;77;21123;-68
2022/04/29 13:13:59;;;;;;;5.05;3.42;;;20.70;46.70;;;;;;1853680;75;21145;-68
2022/04/29 13:16:26;;;;;;;6.50;3.92;;;20.70;46.80;;;;;;1864592;77;21027;-69
2022/04/29 13:18:54;;;;;;;9.48;4.53;;;20.70;46.70;;;;;;1853219;76;21142;-70
2022/04/29 13:21:21;;;;;;;6.62;3.58;;;20.70;46.80;;;;;;1859741;76;21070;-68
2022/04/29 13:23:48;;;;;;;7.37;3.83;;;20.70;46.70;;;;;;1868668;75;21176;-68
2022/04/29 13:26:16;;;;;;;4.30;3.47;;;20.70;46.80;;;;;;1868842;75;21711;-68
2022/04/29 13:28:44;;;;;;;4.60;3.52;;;20.70;46.80;;;;;;1859736;76;21728;-68
2022/04/29 13:31:11;;;;;;;5.25;3.72;;;20.70;47.10;;;;;;1850079;76;21135;-69
2022/04/29 13:33:38;;;;;;;4.17;3.65;;;20.70;46.70;;;;;;1867521;75;21195;-68